createdAt,value
2017-06-17T00:00:06.489Z,11.4
2017-06-17T00:01:25.161Z,11.5
2017-06-17T00:02:43.877Z,11.5
2017-06-17T00:04:02.562Z,11.6
2017-06-17T00:05:21.227Z,11.6
2017-06-17T00:06:39.903Z,11.7
2017-06-17T00:07:58.624Z,11.7
2017-06-17T00:09:17.351Z,11.8
2017-06-17T00:10:36.073Z,11.9
2017-06-17T00:11:54.773Z,11.9
2017-06-17T00:13:13.452Z,11.9
2017-06-17T00:14:32.134Z,12
2017-06-17T00:15:50.876Z,12
2017-06-17T00:17:09.562Z,11.9
2017-06-17T00:18:28.257Z,11.9
2017-06-17T00:19:46.983Z,12
2017-06-17T00:21:05.654Z,12
2017-06-17T00:22:24.333Z,12
2017-06-17T00:23:43.008Z,12
2017-06-17T00:25:01.678Z,12
2017-06-17T00:26:20.346Z,12
2017-06-17T00:27:39.094Z,11.9
2017-06-17T00:28:57.848Z,11.9
2017-06-17T00:30:16.561Z,11.9
2017-06-17T00:31:35.257Z,11.8
2017-06-17T00:32:53.953Z,11.8
2017-06-17T00:34:12.631Z,11.8
2017-06-17T00:35:31.341Z,11.8
2017-06-17T00:36:50.017Z,11.8
2017-06-17T00:38:08.681Z,11.8
2017-06-17T00:39:27.433Z,11.8
2017-06-17T00:40:46.136Z,11.8
2017-06-17T00:42:04.799Z,11.8
2017-06-17T00:43:23.468Z,11.8
2017-06-17T00:44:42.165Z,11.8
2017-06-17T00:46:00.881Z,11.8
2017-06-17T00:47:19.566Z,11.7
2017-06-17T00:48:38.249Z,11.7
2017-06-17T00:49:56.997Z,11.8
2017-06-17T00:51:15.718Z,11.8
2017-06-17T00:52:34.385Z,11.8
2017-06-17T00:53:53.053Z,11.8
2017-06-17T00:55:11.744Z,11.7
2017-06-17T00:56:30.412Z,11.7
2017-06-17T00:57:49.135Z,11.7
2017-06-17T00:59:07.806Z,11.7
2017-06-17T01:00:26.526Z,11.7
2017-06-17T01:01:45.200Z,11.6
2017-06-17T01:03:03.978Z,11.7
2017-06-17T01:04:22.655Z,11.6
2017-06-17T01:05:41.401Z,11.6
2017-06-17T01:07:00.067Z,11.6
2017-06-17T01:08:18.729Z,11.6
2017-06-17T01:09:37.424Z,11.5
2017-06-17T01:10:56.104Z,11.5
2017-06-17T01:12:14.830Z,11.5
2017-06-17T01:13:33.501Z,11.5
2017-06-17T01:14:52.182Z,11.5
2017-06-17T01:16:10.926Z,11.5
2017-06-17T01:17:29.621Z,11.4
2017-06-17T01:18:48.355Z,11.3
2017-06-17T01:20:07.035Z,11.3
2017-06-17T01:21:25.764Z,11.2
2017-06-17T01:22:44.438Z,11.3
2017-06-17T01:24:03.127Z,11.3
2017-06-17T01:25:21.801Z,11.3
2017-06-17T01:26:40.500Z,11.2
2017-06-17T01:27:59.178Z,11.2
2017-06-17T01:29:17.865Z,11.2
2017-06-17T01:30:36.567Z,11.1
2017-06-17T01:31:55.290Z,11.1
2017-06-17T01:33:13.989Z,11
2017-06-17T01:34:32.696Z,10.9
2017-06-17T01:35:51.357Z,10.9
2017-06-17T01:37:10.056Z,10.9
2017-06-17T01:38:28.786Z,10.8
2017-06-17T01:39:47.457Z,10.9
2017-06-17T01:41:06.127Z,10.9
2017-06-17T01:42:24.873Z,11
2017-06-17T01:43:43.558Z,11
2017-06-17T01:45:02.285Z,11
2017-06-17T01:46:20.962Z,11
2017-06-17T01:47:39.639Z,11
2017-06-17T01:48:58.337Z,11.1
2017-06-17T01:50:17.032Z,11
2017-06-17T01:51:35.701Z,11
2017-06-17T01:52:54.391Z,11
2017-06-17T01:54:13.067Z,11.1
2017-06-17T01:55:31.753Z,11.1
2017-06-17T01:56:50.477Z,11.1
2017-06-17T01:58:09.219Z,11.1
2017-06-17T01:59:27.945Z,11
2017-06-17T02:00:46.661Z,10.9
2017-06-17T02:02:05.329Z,10.8
2017-06-17T02:03:24.055Z,10.7
2017-06-17T02:04:42.729Z,10.6
2017-06-17T02:06:01.426Z,10.4
2017-06-17T02:07:20.099Z,10.3
2017-06-17T02:08:38.785Z,10.2
2017-06-17T02:09:57.467Z,10.2
2017-06-17T02:11:16.146Z,10.1
2017-06-17T02:12:34.871Z,10.1
2017-06-17T02:13:53.581Z,10.1
2017-06-17T02:15:12.310Z,10.1
2017-06-17T02:16:31.032Z,10.1
2017-06-17T02:17:49.712Z,10.2
2017-06-17T02:19:08.418Z,10.3
2017-06-17T02:20:27.144Z,10.5
2017-06-17T02:21:45.820Z,10.7
2017-06-17T02:23:04.492Z,10.8
2017-06-17T02:24:23.183Z,10.9
2017-06-17T02:25:41.850Z,11
2017-06-17T02:27:00.566Z,11
2017-06-17T02:28:19.294Z,11
2017-06-17T02:29:38.008Z,10.9
2017-06-17T02:30:56.736Z,10.8
2017-06-17T02:32:15.403Z,10.8
2017-06-17T02:33:34.111Z,10.8
2017-06-17T02:34:52.844Z,10.8
2017-06-17T02:36:11.562Z,10.8
2017-06-17T02:37:30.251Z,10.8
2017-06-17T02:38:48.950Z,10.8
2017-06-17T02:40:07.689Z,10.9
2017-06-17T02:41:26.356Z,10.8
2017-06-17T02:42:45.080Z,10.8
2017-06-17T02:44:03.774Z,10.8
2017-06-17T02:45:22.451Z,10.7
2017-06-17T02:46:41.125Z,10.7
2017-06-17T02:47:59.841Z,10.6
2017-06-17T02:49:18.565Z,10.6
2017-06-17T02:50:37.251Z,10.6
2017-06-17T02:51:55.968Z,10.6
2017-06-17T02:53:14.697Z,10.6
2017-06-17T02:54:33.371Z,10.5
2017-06-17T02:55:52.050Z,10.6
2017-06-17T02:57:10.726Z,10.6
2017-06-17T02:58:29.396Z,10.6
2017-06-17T02:59:48.121Z,10.5
2017-06-17T03:01:06.835Z,10.4
2017-06-17T03:02:25.559Z,10.4
2017-06-17T03:03:44.232Z,10.3
2017-06-17T03:05:02.900Z,10.4
2017-06-17T03:06:21.650Z,10.3
2017-06-17T03:07:40.332Z,10.3
2017-06-17T03:08:59.035Z,10.3
2017-06-17T03:10:17.706Z,10.4
2017-06-17T03:11:36.400Z,10.5
2017-06-17T03:12:55.079Z,10.5
2017-06-17T03:14:13.771Z,10.5
2017-06-17T03:15:32.494Z,10.6
2017-06-17T03:16:51.202Z,10.5
2017-06-17T03:18:09.915Z,10.6
2017-06-17T03:19:28.581Z,10.6
2017-06-17T03:20:47.306Z,10.6
2017-06-17T03:22:05.977Z,10.7
2017-06-17T03:23:24.680Z,10.7
2017-06-17T03:24:43.380Z,10.7
2017-06-17T03:26:02.063Z,10.7
2017-06-17T03:27:20.789Z,10.7
2017-06-17T03:28:39.523Z,10.7
2017-06-17T03:29:58.210Z,10.7
2017-06-17T03:31:16.873Z,10.7
2017-06-17T03:32:35.590Z,10.7
2017-06-17T03:33:54.270Z,10.6
2017-06-17T03:35:12.947Z,10.6
2017-06-17T03:36:31.654Z,10.5
2017-06-17T03:37:50.354Z,10.6
2017-06-17T03:39:09.060Z,10.6
2017-06-17T03:40:27.758Z,10.6
2017-06-17T03:41:46.489Z,10.6
2017-06-17T03:43:05.175Z,10.5
2017-06-17T03:44:23.924Z,10.4
2017-06-17T03:45:42.598Z,10.3
2017-06-17T03:47:01.305Z,10.3
2017-06-17T03:48:20.046Z,10.2
2017-06-17T03:49:38.780Z,10.2
2017-06-17T03:50:57.456Z,10.3
2017-06-17T03:52:16.125Z,10.3
2017-06-17T03:53:34.840Z,10.4
2017-06-17T03:54:53.556Z,10.5
2017-06-17T03:56:12.285Z,10.6
2017-06-17T03:57:30.957Z,10.6
2017-06-17T03:58:49.648Z,10.6
2017-06-17T04:00:08.336Z,10.7
2017-06-17T04:01:27.015Z,10.7
2017-06-17T04:02:45.685Z,10.7
2017-06-17T04:04:04.404Z,10.7
2017-06-17T04:05:23.110Z,10.8
2017-06-17T04:06:41.794Z,10.9
2017-06-17T04:08:00.520Z,10.9
2017-06-17T04:09:19.255Z,11.1
2017-06-17T04:10:37.926Z,11.2
2017-06-17T04:11:56.611Z,11.2
2017-06-17T04:13:15.331Z,11.2
2017-06-17T04:14:34.109Z,11.5
2017-06-17T04:15:52.777Z,11.6
2017-06-17T04:17:11.486Z,11.6
2017-06-17T04:18:30.184Z,11.7
2017-06-17T04:19:48.884Z,11.6
2017-06-17T04:21:07.595Z,11.7
2017-06-17T04:22:26.294Z,11.9
2017-06-17T04:23:44.969Z,12
2017-06-17T04:25:03.661Z,11.9
2017-06-17T04:26:22.394Z,11.9
2017-06-17T04:27:41.125Z,11.9
2017-06-17T04:28:59.802Z,11.8
2017-06-17T04:30:18.542Z,11.9
2017-06-17T04:31:37.224Z,12
2017-06-17T04:32:55.893Z,12
2017-06-17T04:34:14.589Z,12
2017-06-17T04:35:33.328Z,11.9
2017-06-17T04:36:52.031Z,11.9
2017-06-17T04:38:10.695Z,11.9
2017-06-17T04:39:29.370Z,11.9
2017-06-17T04:40:48.045Z,11.9
2017-06-17T04:42:06.719Z,11.9
2017-06-17T04:43:25.440Z,11.9
2017-06-17T04:44:44.136Z,11.9
2017-06-17T04:46:02.849Z,12
2017-06-17T04:47:21.564Z,12
2017-06-17T04:48:40.291Z,12.1
2017-06-17T04:49:58.981Z,11.9
2017-06-17T04:51:17.713Z,11.8
2017-06-17T04:52:36.424Z,11.7
2017-06-17T04:53:55.093Z,11.7
2017-06-17T04:55:13.779Z,11.7
2017-06-17T04:56:32.474Z,11.8
2017-06-17T04:57:51.177Z,11.9
2017-06-17T04:59:09.873Z,11.9
2017-06-17T05:00:28.563Z,11.9
2017-06-17T05:01:47.247Z,12.1
2017-06-17T05:03:05.951Z,12.1
2017-06-17T05:04:24.621Z,12.1
2017-06-17T05:05:43.329Z,12.3
2017-06-17T05:07:02.023Z,12.5
2017-06-17T05:08:20.720Z,12.6
2017-06-17T05:09:39.401Z,12.6
2017-06-17T05:10:58.079Z,12.6
2017-06-17T05:12:16.776Z,12.7
2017-06-17T05:13:35.490Z,12.7
2017-06-17T05:14:54.203Z,12.6
2017-06-17T05:16:12.873Z,12.5
2017-06-17T05:17:31.563Z,12.6
2017-06-17T05:18:50.233Z,12.6
2017-06-17T05:20:08.925Z,12.6
2017-06-17T05:21:27.651Z,12.7
2017-06-17T05:22:46.364Z,12.9
2017-06-17T05:24:05.036Z,12.8
2017-06-17T05:25:23.755Z,12.8
2017-06-17T05:26:42.442Z,12.9
2017-06-17T05:28:01.118Z,12.9
2017-06-17T05:29:19.835Z,12.8
2017-06-17T05:30:38.581Z,12.9
2017-06-17T05:31:57.300Z,12.9
2017-06-17T05:33:15.998Z,12.7
2017-06-17T05:34:34.677Z,12.6
2017-06-17T05:35:53.368Z,12.5
2017-06-17T05:37:12.038Z,12.5
2017-06-17T05:38:30.715Z,12.5
2017-06-17T05:39:49.386Z,12.6
2017-06-17T05:41:08.049Z,12.7
2017-06-17T05:42:26.730Z,12.9
2017-06-17T05:43:45.467Z,13.1
2017-06-17T05:45:04.190Z,13.2
2017-06-17T05:46:22.882Z,13.3
2017-06-17T05:47:41.590Z,13.4
2017-06-17T05:49:00.336Z,13.4
2017-06-17T05:50:19.049Z,13.6
2017-06-17T05:51:37.717Z,13.5
2017-06-17T05:52:56.384Z,13.4
2017-06-17T05:54:15.086Z,13.6
2017-06-17T05:55:33.771Z,13.6
2017-06-17T05:56:52.478Z,13.5
2017-06-17T05:58:11.146Z,13.3
2017-06-17T05:59:29.875Z,13.2
2017-06-17T06:00:48.561Z,13.2
2017-06-17T06:02:07.287Z,13.2
2017-06-17T06:03:25.960Z,13.1
2017-06-17T06:04:44.659Z,13.2
2017-06-17T06:06:03.379Z,13.3
2017-06-17T06:07:22.065Z,13.4
2017-06-17T06:08:40.736Z,13.6
2017-06-17T06:09:59.417Z,13.8
2017-06-17T06:11:18.136Z,13.9
2017-06-17T06:12:36.807Z,13.8
2017-06-17T06:13:55.480Z,13.8
2017-06-17T06:15:14.197Z,13.9
2017-06-17T06:16:32.908Z,13.9
2017-06-17T06:17:51.586Z,13.9
2017-06-17T06:19:10.268Z,13.9
2017-06-17T06:20:28.995Z,13.8
2017-06-17T06:21:47.666Z,13.9
2017-06-17T06:23:06.393Z,14
2017-06-17T06:24:25.059Z,14
2017-06-17T06:25:43.758Z,13.9
2017-06-17T06:27:02.456Z,13.9
2017-06-17T06:28:21.166Z,13.7
2017-06-17T06:29:39.837Z,13.7
2017-06-17T06:30:58.566Z,13.8
2017-06-17T06:32:17.244Z,13.9
2017-06-17T06:33:35.945Z,13.8
2017-06-17T06:34:54.639Z,13.8
2017-06-17T06:36:13.331Z,13.9
2017-06-17T06:37:32.004Z,13.9
2017-06-17T06:38:50.674Z,14
2017-06-17T06:40:09.351Z,14
2017-06-17T06:41:28.060Z,14
2017-06-17T06:42:46.724Z,14.1
2017-06-17T06:44:05.393Z,14.1
2017-06-17T06:45:24.099Z,13.9
2017-06-17T06:46:42.793Z,14
2017-06-17T06:48:01.519Z,14.2
2017-06-17T06:49:20.205Z,14.2
2017-06-17T06:50:38.901Z,14.3
2017-06-17T06:51:57.649Z,14.5
2017-06-17T06:53:16.341Z,14.3
2017-06-17T06:54:35.038Z,14.4
2017-06-17T06:55:53.720Z,14.5
2017-06-17T06:57:12.432Z,14.4
2017-06-17T06:58:31.097Z,14.5
2017-06-17T06:59:49.768Z,14.5
2017-06-17T07:01:08.440Z,14.8
2017-06-17T07:02:27.130Z,14.9
2017-06-17T07:03:45.826Z,15
2017-06-17T07:05:04.524Z,14.9
2017-06-17T07:06:23.255Z,14.9
2017-06-17T07:07:41.947Z,15
2017-06-17T07:09:00.630Z,15.1
2017-06-17T07:10:19.309Z,15.1
2017-06-17T07:11:37.984Z,14.8
2017-06-17T07:12:56.730Z,14.7
2017-06-17T07:14:15.408Z,14.7
2017-06-17T07:15:34.112Z,14.8
2017-06-17T07:16:52.832Z,15
2017-06-17T07:18:11.563Z,15.1
2017-06-17T07:19:30.236Z,15.3
2017-06-17T07:20:48.948Z,15.5
2017-06-17T07:22:07.672Z,15.7
2017-06-17T07:23:26.365Z,15.7
2017-06-17T07:24:45.034Z,15.5
2017-06-17T07:26:03.772Z,15.3
2017-06-17T07:27:22.456Z,15.3
2017-06-17T07:28:41.159Z,15
2017-06-17T07:29:59.845Z,15
2017-06-17T07:31:18.567Z,15.2
2017-06-17T07:32:37.288Z,15.5
2017-06-17T07:33:56.009Z,15.6
2017-06-17T07:35:14.713Z,15.8
2017-06-17T07:36:33.463Z,15.8
2017-06-17T07:37:52.139Z,15.7
2017-06-17T07:39:10.849Z,16
2017-06-17T07:40:29.571Z,16.2
2017-06-17T07:41:48.240Z,16.4
2017-06-17T07:43:06.964Z,16.3
2017-06-17T07:44:25.642Z,16
2017-06-17T07:45:44.360Z,16.1
2017-06-17T07:47:03.035Z,16.2
2017-06-17T07:48:21.709Z,16.2
2017-06-17T07:49:40.413Z,16.3
2017-06-17T07:50:59.146Z,16.1
2017-06-17T07:52:17.892Z,16.3
2017-06-17T07:53:36.567Z,16.4
2017-06-17T07:54:55.253Z,16.6
2017-06-17T07:56:13.962Z,16.5
2017-06-17T07:57:32.669Z,16.4
2017-06-17T07:58:51.343Z,16.3
2017-06-17T08:00:10.046Z,16.2
2017-06-17T08:01:28.713Z,16.3
2017-06-17T08:02:47.415Z,16.5
2017-06-17T08:04:06.087Z,16.5
2017-06-17T08:05:24.761Z,16.5
2017-06-17T08:06:43.480Z,16.9
2017-06-17T08:08:02.151Z,17.2
2017-06-17T08:09:20.860Z,17.2
2017-06-17T08:10:39.588Z,17.2
2017-06-17T08:11:58.255Z,17
2017-06-17T08:13:16.931Z,16.8
2017-06-17T08:14:35.606Z,16.5
2017-06-17T08:15:54.280Z,16.3
2017-06-17T08:17:12.957Z,16.3
2017-06-17T08:18:31.637Z,16.3
2017-06-17T08:19:50.331Z,16.4
2017-06-17T08:21:09.062Z,16.2
2017-06-17T08:22:27.728Z,16.3
2017-06-17T08:23:46.405Z,16.6
2017-06-17T08:25:05.071Z,16.9
2017-06-17T08:26:23.758Z,17.2
2017-06-17T08:27:42.494Z,17.6
2017-06-17T08:29:01.165Z,17.5
2017-06-17T08:30:19.832Z,17.6
2017-06-17T08:31:38.535Z,17.4
2017-06-17T08:32:57.212Z,17.4
2017-06-17T08:34:15.889Z,17.6
2017-06-17T08:35:34.576Z,17.4
2017-06-17T08:36:53.303Z,17.2
2017-06-17T08:38:12.006Z,16.8
2017-06-17T08:39:30.687Z,16.4
2017-06-17T08:40:49.354Z,16.1
2017-06-17T08:42:08.085Z,16
2017-06-17T08:43:26.755Z,15.9
2017-06-17T08:44:45.483Z,15.7
2017-06-17T08:46:04.167Z,15.8
2017-06-17T08:47:22.858Z,16.2
2017-06-17T08:48:41.568Z,16.6
2017-06-17T08:50:00.242Z,17.1
2017-06-17T08:51:18.939Z,17.1
2017-06-17T08:52:37.641Z,17.1
2017-06-17T08:53:56.367Z,17
2017-06-17T08:55:15.046Z,17.2
2017-06-17T08:56:33.715Z,17.4
2017-06-17T08:57:52.426Z,17.6
2017-06-17T08:59:11.132Z,17.8
2017-06-17T09:00:29.810Z,17.9
2017-06-17T09:01:48.512Z,18.1
2017-06-17T09:03:07.206Z,17.8
2017-06-17T09:04:25.887Z,17.8
2017-06-17T09:05:44.573Z,17.9
2017-06-17T09:07:03.237Z,17.9
2017-06-17T09:08:21.933Z,17.9
2017-06-17T09:09:40.600Z,18.2
2017-06-17T09:10:59.270Z,18.1
2017-06-17T09:12:17.936Z,18.3
2017-06-17T09:13:36.633Z,18.4
2017-06-17T09:14:55.327Z,18.3
2017-06-17T09:16:14.026Z,18.3
2017-06-17T09:17:32.694Z,18.1
2017-06-17T09:18:51.421Z,18.2
2017-06-17T09:20:10.103Z,18.5
2017-06-17T09:21:28.777Z,19.2
2017-06-17T09:22:47.459Z,19.4
2017-06-17T09:24:06.127Z,19.5
2017-06-17T09:25:24.794Z,19.6
2017-06-17T09:26:43.489Z,19
2017-06-17T09:28:02.169Z,18.8
2017-06-17T09:29:20.885Z,18.6
2017-06-17T09:30:39.583Z,18
2017-06-17T09:31:58.258Z,18
2017-06-17T09:33:16.946Z,18.2
2017-06-17T09:34:35.618Z,18.6
2017-06-17T09:35:54.286Z,19.1
2017-06-17T09:37:13.009Z,19.5
2017-06-17T09:38:31.685Z,19.5
2017-06-17T09:39:50.365Z,19.7
2017-06-17T09:41:09.118Z,19.7
2017-06-17T09:42:27.801Z,19.5
2017-06-17T09:43:46.508Z,19.2
2017-06-17T09:45:05.226Z,19
2017-06-17T09:46:23.968Z,19.3
2017-06-17T09:47:42.675Z,20
2017-06-17T09:49:01.394Z,20.6
2017-06-17T09:50:20.062Z,21
2017-06-17T09:51:38.755Z,21.1
2017-06-17T09:52:57.449Z,20.5
2017-06-17T09:54:16.120Z,19.7
2017-06-17T09:55:34.782Z,19.3
2017-06-17T09:56:53.494Z,19.3
2017-06-17T09:58:12.220Z,19.5
2017-06-17T09:59:30.918Z,19.6
2017-06-17T10:00:49.594Z,19.6
2017-06-17T10:02:08.267Z,19.5
2017-06-17T10:03:26.942Z,19.5
2017-06-17T10:04:45.614Z,19.9
2017-06-17T10:06:04.365Z,19.5
2017-06-17T10:07:23.036Z,19
2017-06-17T10:08:41.729Z,18.8
2017-06-17T10:10:00.406Z,19.2
2017-06-17T10:11:19.146Z,19.7
2017-06-17T10:12:37.812Z,20.1
2017-06-17T10:13:56.522Z,20.2
2017-06-17T10:15:15.204Z,20.5
2017-06-17T10:16:33.915Z,20.6
2017-06-17T10:17:52.598Z,20.5
2017-06-17T10:19:11.311Z,20.2
2017-06-17T10:20:29.987Z,20.6
2017-06-17T10:21:48.707Z,20.7
2017-06-17T10:23:07.408Z,20.4
2017-06-17T10:24:26.139Z,20.3
2017-06-17T10:25:44.834Z,19.7
2017-06-17T10:27:03.560Z,19.5
2017-06-17T10:28:22.238Z,20.2
2017-06-17T10:29:40.902Z,20.7
2017-06-17T10:30:59.616Z,20.8
2017-06-17T10:32:18.290Z,20.9
2017-06-17T10:33:37.015Z,21.2
2017-06-17T10:34:55.689Z,21.3
2017-06-17T10:36:14.411Z,21.2
2017-06-17T10:37:33.095Z,20.4
2017-06-17T10:38:51.772Z,19.7
2017-06-17T10:40:10.470Z,19.3
2017-06-17T10:41:29.159Z,19.1
2017-06-17T10:42:47.833Z,19.1
2017-06-17T10:44:06.505Z,19.7
2017-06-17T10:45:25.179Z,20.1
2017-06-17T10:46:43.867Z,20.5
2017-06-17T10:48:02.593Z,21.1
2017-06-17T10:49:21.299Z,21.1
2017-06-17T10:50:39.970Z,21.2
2017-06-17T10:51:58.667Z,21.6
2017-06-17T10:53:17.438Z,21.6
2017-06-17T10:54:36.152Z,20.7
2017-06-17T10:55:54.849Z,19.8
2017-06-17T10:57:13.573Z,19.2
2017-06-17T10:58:32.317Z,19.1
2017-06-17T10:59:51.005Z,18.7
2017-06-17T11:01:09.680Z,18.7
2017-06-17T11:02:28.373Z,18.8
2017-06-17T11:03:47.054Z,18.8
2017-06-17T11:05:05.722Z,18.9
2017-06-17T11:06:24.419Z,19.2
2017-06-17T11:07:43.139Z,19.3
2017-06-17T11:09:01.870Z,18.9
2017-06-17T11:10:20.570Z,18.8
2017-06-17T11:11:39.239Z,18.6
2017-06-17T11:12:57.914Z,18.8
2017-06-17T11:14:16.599Z,19
2017-06-17T11:15:35.332Z,19.7
2017-06-17T11:16:54.033Z,20.6
2017-06-17T11:18:12.698Z,20.9
2017-06-17T11:19:31.401Z,21.2
2017-06-17T11:20:50.070Z,21
2017-06-17T11:22:08.768Z,20.9
2017-06-17T11:23:27.439Z,21.2
2017-06-17T11:24:46.161Z,21.4
2017-06-17T11:26:04.835Z,21.4
2017-06-17T11:27:23.528Z,21.7
2017-06-17T11:28:42.226Z,21.6
2017-06-17T11:30:00.921Z,21
2017-06-17T11:31:19.594Z,20.4
2017-06-17T11:32:38.266Z,20
2017-06-17T11:33:56.959Z,19.8
2017-06-17T11:35:15.669Z,20.1
2017-06-17T11:36:34.351Z,20.3
2017-06-17T11:37:53.019Z,20.8
2017-06-17T11:39:11.689Z,21.2
2017-06-17T11:40:30.402Z,21.2
2017-06-17T11:41:49.103Z,21.4
2017-06-17T11:43:07.768Z,21.6
2017-06-17T11:44:26.437Z,21.3
2017-06-17T11:45:45.134Z,20.9
2017-06-17T11:47:03.853Z,20.6
2017-06-17T11:48:22.565Z,20.6
2017-06-17T11:49:41.281Z,20.3
2017-06-17T11:50:59.947Z,20.3
2017-06-17T11:52:18.613Z,20.3
2017-06-17T11:53:37.338Z,20.3
2017-06-17T11:54:56.005Z,20.9
2017-06-17T11:56:14.676Z,22.1
2017-06-17T11:57:33.347Z,24.1
2017-06-17T11:58:52.018Z,28.6
2017-06-17T12:00:10.693Z,33.9
2017-06-17T12:01:29.391Z,34.4
2017-06-17T12:02:48.058Z,34.4
2017-06-17T12:04:06.728Z,34.2
2017-06-17T12:05:25.403Z,34.4
2017-06-17T12:06:44.136Z,34.6
2017-06-17T12:08:02.810Z,34.8
2017-06-17T12:09:21.479Z,34.9
2017-06-17T12:10:40.203Z,35
2017-06-17T12:11:58.916Z,35.2
2017-06-17T12:13:17.671Z,35.3
2017-06-17T12:14:36.357Z,35.3
2017-06-17T12:15:55.075Z,34.7
2017-06-17T12:17:13.780Z,34.2
2017-06-17T12:18:32.448Z,29.9
2017-06-17T12:19:51.122Z,33.5
2017-06-17T12:21:09.803Z,31.1
2017-06-17T12:22:28.479Z,29
2017-06-17T12:23:47.149Z,27.8
2017-06-17T12:25:05.845Z,26.9
2017-06-17T12:26:24.775Z,28.8
2017-06-17T12:27:43.577Z,34.3
2017-06-17T12:29:02.273Z,34.9
2017-06-17T12:30:20.967Z,35.2
2017-06-17T12:31:39.654Z,34.5
2017-06-17T12:32:58.335Z,34.4
2017-06-17T12:34:17.054Z,34.7
2017-06-17T12:35:35.724Z,33
2017-06-17T12:36:54.445Z,31.6
2017-06-17T12:38:13.142Z,34.5
2017-06-17T12:39:31.810Z,32.6
2017-06-17T12:40:50.527Z,32.2
2017-06-17T12:42:09.197Z,34.2
2017-06-17T12:43:27.870Z,34.4
2017-06-17T12:44:46.588Z,32.3
2017-06-17T12:46:05.307Z,34.5
2017-06-17T12:47:24.001Z,34.4
2017-06-17T12:48:42.696Z,32.4
2017-06-17T12:50:01.394Z,34.4
2017-06-17T12:51:20.072Z,34.9
2017-06-17T12:52:38.808Z,35.2
2017-06-17T12:53:57.493Z,35.5
2017-06-17T12:55:16.162Z,35.8
2017-06-17T12:56:34.898Z,36
2017-06-17T12:57:53.629Z,36
2017-06-17T12:59:12.365Z,36
2017-06-17T13:00:31.064Z,35.6
2017-06-17T13:01:49.775Z,35.2
2017-06-17T13:03:08.465Z,35.4
2017-06-17T13:04:27.142Z,35.3
2017-06-17T13:05:45.864Z,35.5
2017-06-17T13:07:04.577Z,35.6
2017-06-17T13:08:23.303Z,35.6
2017-06-17T13:09:42.012Z,35.7
2017-06-17T13:11:00.736Z,36
2017-06-17T13:12:19.442Z,35.7
2017-06-17T13:13:38.114Z,34.9
2017-06-17T13:14:56.820Z,34.9
2017-06-17T13:16:15.530Z,35.3
2017-06-17T13:17:34.221Z,35.6
2017-06-17T13:18:52.914Z,35.9
2017-06-17T13:20:11.602Z,35.6
2017-06-17T13:21:30.328Z,35.7
2017-06-17T13:22:49.079Z,35.8
2017-06-17T13:24:07.752Z,35.3
2017-06-17T13:25:26.502Z,35.4
2017-06-17T13:26:45.219Z,35.3
2017-06-17T13:28:03.919Z,34.7
2017-06-17T13:29:22.597Z,34.8
2017-06-17T13:30:41.312Z,35.2
2017-06-17T13:32:00.014Z,35.2
2017-06-17T13:33:18.686Z,34.9
2017-06-17T13:34:37.406Z,35
2017-06-17T13:35:56.149Z,35.4
2017-06-17T13:37:14.819Z,35.7
2017-06-17T13:38:33.482Z,36
2017-06-17T13:39:52.191Z,36.1
2017-06-17T13:41:10.897Z,36.1
2017-06-17T13:42:29.604Z,36
2017-06-17T13:43:48.325Z,36.1
2017-06-17T13:45:07.005Z,36.3
2017-06-17T13:46:25.701Z,36.5
2017-06-17T13:47:44.392Z,36.6
2017-06-17T13:49:03.061Z,36.6
2017-06-17T13:50:21.729Z,36.4
2017-06-17T13:51:40.406Z,35.5
2017-06-17T13:52:59.125Z,34.7
2017-06-17T13:54:17.797Z,34.5
2017-06-17T13:55:36.487Z,34.8
2017-06-17T13:56:55.177Z,34.8
2017-06-17T13:58:13.894Z,35
2017-06-17T13:59:32.622Z,35.4
2017-06-17T14:00:51.292Z,35.7
2017-06-17T14:02:09.991Z,36.1
2017-06-17T14:03:28.747Z,36.2
2017-06-17T14:04:47.426Z,36.2
2017-06-17T14:06:06.148Z,36.3
2017-06-17T14:07:24.827Z,36.2
2017-06-17T14:08:43.495Z,36
2017-06-17T14:10:02.168Z,35.2
2017-06-17T14:11:20.839Z,34.7
2017-06-17T14:12:39.590Z,34.9
2017-06-17T14:13:58.265Z,35.3
2017-06-17T14:15:16.951Z,35.7
2017-06-17T14:16:35.643Z,36
2017-06-17T14:17:54.379Z,36.3
2017-06-17T14:19:13.118Z,36.4
2017-06-17T14:20:31.792Z,36.6
2017-06-17T14:21:50.493Z,36.7
2017-06-17T14:23:09.196Z,35.8
2017-06-17T14:24:27.868Z,35
2017-06-17T14:25:46.563Z,35
2017-06-17T14:27:05.271Z,35.6
2017-06-17T14:28:23.994Z,36
2017-06-17T14:29:42.656Z,36
2017-06-17T14:31:01.333Z,36.2
2017-06-17T14:32:19.999Z,36.4
2017-06-17T14:33:38.689Z,36.3
2017-06-17T14:34:57.449Z,35.4
2017-06-17T14:36:16.147Z,35.2
2017-06-17T14:37:34.820Z,34.9
2017-06-17T14:38:53.561Z,34.5
2017-06-17T14:40:12.230Z,34.4
2017-06-17T14:41:30.900Z,33.2
2017-06-17T14:42:49.569Z,31.7
2017-06-17T14:44:08.244Z,30.6
2017-06-17T14:45:26.919Z,29.6
2017-06-17T14:46:45.644Z,28.6
2017-06-17T14:48:04.343Z,28.2
2017-06-17T14:49:23.067Z,27.2
2017-06-17T14:50:41.737Z,26.6
2017-06-17T14:52:00.418Z,26
2017-06-17T14:53:19.137Z,25.7
2017-06-17T14:54:37.868Z,25.5
2017-06-17T14:55:56.564Z,25
2017-06-17T14:57:15.277Z,24.6
2017-06-17T14:58:33.979Z,24.5
2017-06-17T14:59:52.710Z,24.3
2017-06-17T15:01:11.373Z,24.1
2017-06-17T15:02:30.042Z,24.1
2017-06-17T15:03:48.747Z,23.9
2017-06-17T15:05:07.478Z,23.6
2017-06-17T15:06:26.148Z,23.4
2017-06-17T15:07:44.876Z,23.1
2017-06-17T15:09:03.595Z,22.7
2017-06-17T15:10:22.328Z,22.7
2017-06-17T15:11:41.006Z,22.8
2017-06-17T15:12:59.716Z,23.2
2017-06-17T15:14:18.412Z,23.4
2017-06-17T15:15:37.097Z,23.9
2017-06-17T15:16:55.761Z,24.2
2017-06-17T15:18:14.427Z,24
2017-06-17T15:19:33.153Z,24
2017-06-17T15:20:51.901Z,23.9
2017-06-17T15:22:10.573Z,23.9
2017-06-17T15:23:29.301Z,24
2017-06-17T15:24:48.025Z,24
2017-06-17T15:26:06.732Z,23.4
2017-06-17T15:27:25.398Z,22.7
2017-06-17T15:28:44.104Z,22
2017-06-17T15:30:02.778Z,21.7
2017-06-17T15:31:21.477Z,21.7
2017-06-17T15:32:40.176Z,21.5
2017-06-17T15:33:58.868Z,21.9
2017-06-17T15:35:17.565Z,22.1
2017-06-17T15:36:36.306Z,21.9
2017-06-17T15:37:54.973Z,22.4
2017-06-17T15:39:13.682Z,22.8
2017-06-17T15:40:32.435Z,23.1
2017-06-17T15:41:51.116Z,22.5
2017-06-17T15:43:09.812Z,21.7
2017-06-17T15:44:28.480Z,21.2
2017-06-17T15:45:47.163Z,20.9
2017-06-17T15:47:05.853Z,20.5
2017-06-17T15:48:24.567Z,20.6
2017-06-17T15:49:43.234Z,20.7
2017-06-17T15:51:01.924Z,20.8
2017-06-17T15:52:20.623Z,21.1
2017-06-17T15:53:39.298Z,21.1
2017-06-17T15:54:57.969Z,21.9
2017-06-17T15:56:16.690Z,25.3
2017-06-17T15:57:35.393Z,25.3
2017-06-17T15:58:54.112Z,26.6
2017-06-17T16:00:12.841Z,33.1
2017-06-17T16:01:31.562Z,34.4
2017-06-17T16:02:50.249Z,34.8
2017-06-17T16:04:08.941Z,34.6
2017-06-17T16:05:27.609Z,34.9
2017-06-17T16:06:46.333Z,34.4
2017-06-17T16:08:05.049Z,31.8
2017-06-17T16:09:23.745Z,31.6
2017-06-17T16:10:42.419Z,28.5
2017-06-17T16:12:01.089Z,26.1
2017-06-17T16:13:19.798Z,24.3
2017-06-17T16:14:38.479Z,22.7
2017-06-17T16:15:57.184Z,21.5
2017-06-17T16:17:15.911Z,21.2
2017-06-17T16:18:34.651Z,22.2
2017-06-17T16:19:53.351Z,21.7
2017-06-17T16:21:12.017Z,25.9
2017-06-17T16:22:30.690Z,25.4
2017-06-17T16:23:49.394Z,28.6
2017-06-17T16:25:08.118Z,32.6
2017-06-17T16:26:26.787Z,32.2
2017-06-17T16:27:45.494Z,29
2017-06-17T16:29:04.180Z,28.3
2017-06-17T16:30:22.843Z,29.3
2017-06-17T16:31:41.561Z,27.1
2017-06-17T16:33:00.424Z,27
2017-06-17T16:34:19.126Z,28.1
2017-06-17T16:35:37.803Z,32.4
2017-06-17T16:36:56.480Z,34.3
2017-06-17T16:38:15.154Z,34.3
2017-06-17T16:39:33.870Z,34.7
2017-06-17T16:40:52.557Z,34.7
2017-06-17T16:42:11.225Z,34.7
2017-06-17T16:43:29.937Z,34.4
2017-06-17T16:44:48.607Z,34.8
2017-06-17T16:46:07.334Z,34.6
2017-06-17T16:47:26.001Z,33
2017-06-17T16:48:44.708Z,29.2
2017-06-17T16:50:03.431Z,27.7
2017-06-17T16:51:22.101Z,29.5
2017-06-17T16:52:40.772Z,31.2
2017-06-17T16:53:59.445Z,31.4
2017-06-17T16:55:18.136Z,30.5
2017-06-17T16:56:36.805Z,29.7
2017-06-17T16:57:55.477Z,30.8
2017-06-17T16:59:14.214Z,33.5
2017-06-17T17:00:32.895Z,34.3
2017-06-17T17:01:51.570Z,34.3
2017-06-17T17:03:10.240Z,30.5
2017-06-17T17:04:28.949Z,32.4
2017-06-17T17:05:47.659Z,34
2017-06-17T17:07:06.330Z,33.6
2017-06-17T17:08:25.044Z,30.9
2017-06-17T17:09:43.741Z,27.6
2017-06-17T17:11:02.454Z,25.7
2017-06-17T17:12:21.179Z,24.5
2017-06-17T17:13:39.884Z,25
2017-06-17T17:14:58.613Z,27.8
2017-06-17T17:16:17.344Z,25.8
2017-06-17T17:17:36.012Z,25.8
2017-06-17T17:18:54.679Z,24.4
2017-06-17T17:20:13.373Z,23.4
2017-06-17T17:21:32.044Z,22.9
2017-06-17T17:22:50.721Z,22.8
2017-06-17T17:24:09.388Z,25.4
2017-06-17T17:25:28.081Z,30.2
2017-06-17T17:26:46.806Z,32.9
2017-06-17T17:28:05.483Z,32.1
2017-06-17T17:29:24.159Z,28.3
2017-06-17T17:30:42.887Z,26.2
2017-06-17T17:32:01.563Z,26.5
2017-06-17T17:33:20.252Z,26.4
2017-06-17T17:34:38.952Z,23.9